sensor_id;sensor_type;location;lat;lon;timestamp;P1;durP1;ratioP1;P2;durP2;ratioP2
9102;SDS011;4587;51.434;6.788;2023-01-06T00:00:20;8.37;;;3.50;;
9102;SDS011;4587;51.434;6.788;2023-01-06T00:02:46;9.50;;;3.70;;
9102;SDS011;4587;51.434;6.788;2023-01-06T00:05:12;5.83;;;3.13;;
9102;SDS011;4587;51.434;6.788;2023-01-06T00:07:38;6.60;;;2.77;;
9102;SDS011;4587;51.434;6.788;2023-01-06T00:10:05;5.67;;;2.80;;
9102;SDS011;4587;51.434;6.788;2023-01-06T00:12:31;5.07;;;2.77;;
9102;SDS011;4587;51.434;6.788;2023-01-06T00:14:57;6.33;;;2.90;;
9102;SDS011;4587;51.434;6.788;2023-01-06T00:17:23;6.27;;;2.80;;
9102;SDS011;4587;51.434;6.788;2023-01-06T00:19:48;8.03;;;2.77;;
9102;SDS011;4587;51.434;6.788;2023-01-06T00:22:14;6.40;;;3.27;;
9102;SDS011;4587;51.434;6.788;2023-01-06T00:24:39;10.50;;;3.47;;
9102;SDS011;4587;51.434;6.788;2023-01-06T00:27:05;8.13;;;3.57;;
9102;SDS011;4587;51.434;6.788;2023-01-06T00:29:30;7.03;;;3.60;;
9102;SDS011;4587;51.434;6.788;2023-01-06T00:32:00;6.93;;;3.97;;
9102;SDS011;4587;51.434;6.788;2023-01-06T00:34:26;10.93;;;3.90;;
9102;SDS011;4587;51.434;6.788;2023-01-06T00:36:52;7.37;;;4.23;;
9102;SDS011;4587;51.434;6.788;2023-01-06T00:39:18;10.50;;;3.87;;
9102;SDS011;4587;51.434;6.788;2023-01-06T00:41:44;10.03;;;4.30;;
9102;SDS011;4587;51.434;6.788;2023-01-06T00:44:28;7.77;;;4.03;;
9102;SDS011;4587;51.434;6.788;2023-01-06T00:46:54;8.23;;;3.83;;
9102;SDS011;4587;51.434;6.788;2023-01-06T00:49:20;6.93;;;3.20;;
9102;SDS011;4587;51.434;6.788;2023-01-06T00:51:46;5.80;;;2.87;;
9102;SDS011;4587;51.434;6.788;2023-01-06T00:54:12;7.67;;;2.87;;
9102;SDS011;4587;51.434;6.788;2023-01-06T00:56:41;5.90;;;2.67;;
9102;SDS011;4587;51.434;6.788;2023-01-06T00:59:09;5.27;;;2.20;;
9102;SDS011;4587;51.434;6.788;2023-01-06T01:01:36;5.93;;;2.63;;
9102;SDS011;4587;51.434;6.788;2023-01-06T01:04:02;6.03;;;2.70;;
9102;SDS011;4587;51.434;6.788;2023-01-06T01:06:28;5.73;;;2.40;;
9102;SDS011;4587;51.434;6.788;2023-01-06T01:08:54;4.90;;;2.30;;
9102;SDS011;4587;51.434;6.788;2023-01-06T01:11:22;4.80;;;2.37;;
9102;SDS011;4587;51.434;6.788;2023-01-06T01:14:06;5.63;;;2.23;;
9102;SDS011;4587;51.434;6.788;2023-01-06T01:16:32;4.17;;;2.07;;
9102;SDS011;4587;51.434;6.788;2023-01-06T01:18:58;6.97;;;2.73;;
9102;SDS011;4587;51.434;6.788;2023-01-06T01:21:24;6.57;;;2.60;;
9102;SDS011;4587;51.434;6.788;2023-01-06T01:23:49;6.27;;;2.57;;
9102;SDS011;4587;51.434;6.788;2023-01-06T01:26:15;7.90;;;2.40;;
9102;SDS011;4587;51.434;6.788;2023-01-06T01:28:41;5.43;;;3.00;;
9102;SDS011;4587;51.434;6.788;2023-01-06T01:31:07;7.13;;;3.50;;
9102;SDS011;4587;51.434;6.788;2023-01-06T01:33:33;6.90;;;3.13;;
9102;SDS011;4587;51.434;6.788;2023-01-06T01:36:04;5.27;;;2.87;;
9102;SDS011;4587;51.434;6.788;2023-01-06T01:38:31;3.60;;;2.40;;
9102;SDS011;4587;51.434;6.788;2023-01-06T01:40:56;4.57;;;2.43;;
9102;SDS011;4587;51.434;6.788;2023-01-06T01:43:22;6.73;;;2.57;;
9102;SDS011;4587;51.434;6.788;2023-01-06T01:45:48;5.47;;;1.80;;
9102;SDS011;4587;51.434;6.788;2023-01-06T01:48:24;3.50;;;1.70;;
9102;SDS011;4587;51.434;6.788;2023-01-06T01:50:53;5.53;;;1.70;;
9102;SDS011;4587;51.434;6.788;2023-01-06T01:53:22;5.20;;;1.57;;
9102;SDS011;4587;51.434;6.788;2023-01-06T01:55:51;4.37;;;1.87;;
9102;SDS011;4587;51.434;6.788;2023-01-06T01:58:20;4.53;;;1.70;;
9102;SDS011;4587;51.434;6.788;2023-01-06T02:00:58;4.03;;;1.50;;
9102;SDS011;4587;51.434;6.788;2023-01-06T02:03:24;3.67;;;1.57;;
9102;SDS011;4587;51.434;6.788;2023-01-06T02:05:53;2.90;;;1.47;;
9102;SDS011;4587;51.434;6.788;2023-01-06T02:10:59;3.87;;;1.27;;
9102;SDS011;4587;51.434;6.788;2023-01-06T02:13:25;4.77;;;1.33;;
9102;SDS011;4587;51.434;6.788;2023-01-06T02:15:52;3.20;;;1.10;;
9102;SDS011;4587;51.434;6.788;2023-01-06T02:19:11;4.70;;;1.20;;
9102;SDS011;4587;51.434;6.788;2023-01-06T02:34:49;4.60;;;1.70;;
9102;SDS011;4587;51.434;6.788;2023-01-06T02:40:42;5.30;;;3.00;;
9102;SDS011;4587;51.434;6.788;2023-01-06T02:45:58;5.07;;;1.97;;
9102;SDS011;4587;51.434;6.788;2023-01-06T02:51:32;4.53;;;1.63;;
9102;SDS011;4587;51.434;6.788;2023-01-06T02:57:01;5.60;;;2.00;;
9102;SDS011;4587;51.434;6.788;2023-01-06T02:59:37;3.80;;;1.77;;
9102;SDS011;4587;51.434;6.788;2023-01-06T03:02:08;3.23;;;1.67;;
9102;SDS011;4587;51.434;6.788;2023-01-06T03:04:40;3.60;;;1.70;;
9102;SDS011;4587;51.434;6.788;2023-01-06T03:07:08;3.87;;;1.50;;
9102;SDS011;4587;51.434;6.788;2023-01-06T03:09:37;4.07;;;1.30;;
9102;SDS011;4587;51.434;6.788;2023-01-06T03:12:11;6.00;;;1.50;;
9102;SDS011;4587;51.434;6.788;2023-01-06T03:14:43;4.40;;;1.70;;
9102;SDS011;4587;51.434;6.788;2023-01-06T03:17:14;4.77;;;1.43;;
9102;SDS011;4587;51.434;6.788;2023-01-06T03:19:40;4.90;;;1.30;;
9102;SDS011;4587;51.434;6.788;2023-01-06T03:22:07;4.97;;;1.40;;
9102;SDS011;4587;51.434;6.788;2023-01-06T03:24:34;3.70;;;1.40;;
9102;SDS011;4587;51.434;6.788;2023-01-06T03:27:02;3.37;;;1.30;;
9102;SDS011;4587;51.434;6.788;2023-01-06T03:29:29;4.73;;;1.50;;
9102;SDS011;4587;51.434;6.788;2023-01-06T03:32:02;6.60;;;1.70;;
9102;SDS011;4587;51.434;6.788;2023-01-06T03:40:58;5.90;;;1.43;;
9102;SDS011;4587;51.434;6.788;2023-01-06T03:43:55;4.47;;;1.30;;
9102;SDS011;4587;51.434;6.788;2023-01-06T03:46:40;5.80;;;1.40;;
9102;SDS011;4587;51.434;6.788;2023-01-06T03:49:16;3.50;;;1.20;;
9102;SDS011;4587;51.434;6.788;2023-01-06T03:54:38;3.90;;;1.17;;
9102;SDS011;4587;51.434;6.788;2023-01-06T03:57:18;4.77;;;1.20;;
9102;SDS011;4587;51.434;6.788;2023-01-06T03:59:54;3.07;;;1.30;;
9102;SDS011;4587;51.434;6.788;2023-01-06T04:02:23;4.50;;;1.33;;
9102;SDS011;4587;51.434;6.788;2023-01-06T04:07:49;3.93;;;1.27;;
9102;SDS011;4587;51.434;6.788;2023-01-06T04:10:15;3.40;;;1.03;;
9102;SDS011;4587;51.434;6.788;2023-01-06T04:12:42;2.87;;;1.10;;
9102;SDS011;4587;51.434;6.788;2023-01-06T04:15:11;5.73;;;1.10;;
9102;SDS011;4587;51.434;6.788;2023-01-06T04:17:56;2.23;;;1.00;;
9102;SDS011;4587;51.434;6.788;2023-01-06T04:20:23;4.47;;;1.20;;
9102;SDS011;4587;51.434;6.788;2023-01-06T04:22:54;2.73;;;1.10;;
9102;SDS011;4587;51.434;6.788;2023-01-06T04:25:20;2.47;;;0.90;;
9102;SDS011;4587;51.434;6.788;2023-01-06T04:27:46;3.20;;;1.27;;
9102;SDS011;4587;51.434;6.788;2023-01-06T04:30:11;2.33;;;1.00;;
9102;SDS011;4587;51.434;6.788;2023-01-06T04:32:37;2.53;;;1.00;;
9102;SDS011;4587;51.434;6.788;2023-01-06T04:35:03;3.53;;;1.10;;
9102;SDS011;4587;51.434;6.788;2023-01-06T04:37:29;6.67;;;1.23;;
9102;SDS011;4587;51.434;6.788;2023-01-06T04:39:55;4.00;;;1.13;;
9102;SDS011;4587;51.434;6.788;2023-01-06T04:42:20;3.50;;;0.90;;
9102;SDS011;4587;51.434;6.788;2023-01-06T04:44:46;3.73;;;1.00;;
9102;SDS011;4587;51.434;6.788;2023-01-06T04:47:11;2.50;;;1.00;;
9102;SDS011;4587;51.434;6.788;2023-01-06T04:49:37;4.20;;;1.20;;
9102;SDS011;4587;51.434;6.788;2023-01-06T04:52:02;4.67;;;0.80;;
9102;SDS011;4587;51.434;6.788;2023-01-06T04:54:28;5.90;;;1.10;;
9102;SDS011;4587;51.434;6.788;2023-01-06T04:56:54;2.30;;;0.93;;
9102;SDS011;4587;51.434;6.788;2023-01-06T04:59:19;4.33;;;1.40;;
9102;SDS011;4587;51.434;6.788;2023-01-06T05:01:45;6.37;;;1.20;;
9102;SDS011;4587;51.434;6.788;2023-01-06T05:04:10;5.97;;;1.30;;
9102;SDS011;4587;51.434;6.788;2023-01-06T05:06:36;3.97;;;1.10;;
9102;SDS011;4587;51.434;6.788;2023-01-06T05:09:03;5.33;;;1.00;;
9102;SDS011;4587;51.434;6.788;2023-01-06T05:11:29;3.23;;;1.40;;
9102;SDS011;4587;51.434;6.788;2023-01-06T05:13:55;4.63;;;1.47;;
9102;SDS011;4587;51.434;6.788;2023-01-06T05:16:22;4.10;;;1.63;;
9102;SDS011;4587;51.434;6.788;2023-01-06T05:18:53;3.23;;;1.50;;
9102;SDS011;4587;51.434;6.788;2023-01-06T05:21:20;3.77;;;1.70;;
9102;SDS011;4587;51.434;6.788;2023-01-06T05:23:47;4.53;;;2.20;;
9102;SDS011;4587;51.434;6.788;2023-01-06T05:26:17;4.37;;;2.40;;
9102;SDS011;4587;51.434;6.788;2023-01-06T05:28:45;4.27;;;2.30;;
9102;SDS011;4587;51.434;6.788;2023-01-06T05:31:11;4.97;;;2.70;;
9102;SDS011;4587;51.434;6.788;2023-01-06T05:33:36;6.10;;;2.67;;
9102;SDS011;4587;51.434;6.788;2023-01-06T05:36:03;7.40;;;2.70;;
9102;SDS011;4587;51.434;6.788;2023-01-06T05:38:31;4.97;;;2.67;;
9102;SDS011;4587;51.434;6.788;2023-01-06T05:40:56;6.80;;;3.20;;
9102;SDS011;4587;51.434;6.788;2023-01-06T05:46:44;7.57;;;2.93;;
9102;SDS011;4587;51.434;6.788;2023-01-06T05:49:09;4.23;;;2.60;;
9102;SDS011;4587;51.434;6.788;2023-01-06T05:51:35;7.87;;;3.30;;
9102;SDS011;4587;51.434;6.788;2023-01-06T05:54:01;6.23;;;2.70;;
9102;SDS011;4587;51.434;6.788;2023-01-06T05:56:30;6.27;;;2.87;;
9102;SDS011;4587;51.434;6.788;2023-01-06T05:58:56;8.17;;;3.20;;
9102;SDS011;4587;51.434;6.788;2023-01-06T06:01:27;7.30;;;3.40;;
9102;SDS011;4587;51.434;6.788;2023-01-06T06:03:55;5.90;;;3.40;;
9102;SDS011;4587;51.434;6.788;2023-01-06T06:06:22;9.07;;;4.43;;
9102;SDS011;4587;51.434;6.788;2023-01-06T06:08:48;7.97;;;3.67;;
9102;SDS011;4587;51.434;6.788;2023-01-06T06:11:14;9.53;;;4.33;;
9102;SDS011;4587;51.434;6.788;2023-01-06T06:13:48;8.40;;;2.93;;
9102;SDS011;4587;51.434;6.788;2023-01-06T06:16:15;4.90;;;2.40;;
9102;SDS011;4587;51.434;6.788;2023-01-06T06:18:42;4.63;;;1.93;;
9102;SDS011;4587;51.434;6.788;2023-01-06T06:21:13;3.30;;;1.57;;
9102;SDS011;4587;51.434;6.788;2023-01-06T06:23:40;3.70;;;1.20;;
9102;SDS011;4587;51.434;6.788;2023-01-06T06:26:06;2.80;;;1.13;;
9102;SDS011;4587;51.434;6.788;2023-01-06T06:28:33;3.50;;;1.10;;
9102;SDS011;4587;51.434;6.788;2023-01-06T06:31:06;5.30;;;1.50;;
9102;SDS011;4587;51.434;6.788;2023-01-06T06:33:37;3.37;;;2.03;;
9102;SDS011;4587;51.434;6.788;2023-01-06T06:36:04;3.40;;;1.47;;
9102;SDS011;4587;51.434;6.788;2023-01-06T06:38:30;3.97;;;1.23;;
9102;SDS011;4587;51.434;6.788;2023-01-06T06:40:56;4.90;;;1.13;;
9102;SDS011;4587;51.434;6.788;2023-01-06T06:43:21;2.33;;;1.13;;
9102;SDS011;4587;51.434;6.788;2023-01-06T06:45:47;1.83;;;1.20;;
9102;SDS011;4587;51.434;6.788;2023-01-06T06:48:13;5.03;;;1.57;;
9102;SDS011;4587;51.434;6.788;2023-01-06T06:50:39;2.60;;;0.97;;
9102;SDS011;4587;51.434;6.788;2023-01-06T06:56:27;2.67;;;1.30;;
9102;SDS011;4587;51.434;6.788;2023-01-06T06:58:52;1.40;;;1.10;;
9102;SDS011;4587;51.434;6.788;2023-01-06T07:01:18;2.73;;;0.97;;
9102;SDS011;4587;51.434;6.788;2023-01-06T07:03:45;2.37;;;1.10;;
9102;SDS011;4587;51.434;6.788;2023-01-06T07:06:15;1.97;;;1.20;;
9102;SDS011;4587;51.434;6.788;2023-01-06T07:08:44;2.23;;;1.00;;
9102;SDS011;4587;51.434;6.788;2023-01-06T07:11:11;2.10;;;1.50;;
9102;SDS011;4587;51.434;6.788;2023-01-06T07:13:37;4.17;;;1.80;;
9102;SDS011;4587;51.434;6.788;2023-01-06T07:16:03;1.97;;;0.97;;
9102;SDS011;4587;51.434;6.788;2023-01-06T07:18:29;1.20;;;0.90;;
9102;SDS011;4587;51.434;6.788;2023-01-06T07:20:55;2.47;;;1.13;;
9102;SDS011;4587;51.434;6.788;2023-01-06T07:23:21;2.40;;;1.17;;
9102;SDS011;4587;51.434;6.788;2023-01-06T07:25:51;2.63;;;1.30;;
9102;SDS011;4587;51.434;6.788;2023-01-06T07:28:17;2.13;;;1.00;;
9102;SDS011;4587;51.434;6.788;2023-01-06T07:30:43;2.50;;;1.10;;
9102;SDS011;4587;51.434;6.788;2023-01-06T07:33:08;3.57;;;1.33;;
9102;SDS011;4587;51.434;6.788;2023-01-06T07:35:34;3.93;;;0.97;;
9102;SDS011;4587;51.434;6.788;2023-01-06T07:38:03;3.20;;;1.10;;
9102;SDS011;4587;51.434;6.788;2023-01-06T07:40:29;2.23;;;1.10;;
9102;SDS011;4587;51.434;6.788;2023-01-06T07:42:55;3.37;;;0.93;;
9102;SDS011;4587;51.434;6.788;2023-01-06T07:45:20;1.90;;;1.03;;
9102;SDS011;4587;51.434;6.788;2023-01-06T07:47:46;2.67;;;1.40;;
9102;SDS011;4587;51.434;6.788;2023-01-06T07:50:11;4.13;;;1.10;;
9102;SDS011;4587;51.434;6.788;2023-01-06T07:52:37;2.53;;;1.00;;
9102;SDS011;4587;51.434;6.788;2023-01-06T07:55:03;2.77;;;1.53;;
9102;SDS011;4587;51.434;6.788;2023-01-06T07:57:28;4.13;;;1.30;;
9102;SDS011;4587;51.434;6.788;2023-01-06T07:59:54;3.90;;;1.43;;
9102;SDS011;4587;51.434;6.788;2023-01-06T08:02:20;4.63;;;1.90;;
9102;SDS011;4587;51.434;6.788;2023-01-06T08:04:46;4.80;;;2.00;;
9102;SDS011;4587;51.434;6.788;2023-01-06T08:07:12;5.07;;;2.13;;
9102;SDS011;4587;51.434;6.788;2023-01-06T08:09:38;7.10;;;2.60;;
9102;SDS011;4587;51.434;6.788;2023-01-06T08:12:04;6.87;;;2.57;;
9102;SDS011;4587;51.434;6.788;2023-01-06T08:14:30;6.40;;;1.70;;
9102;SDS011;4587;51.434;6.788;2023-01-06T08:16:55;5.53;;;2.73;;
9102;SDS011;4587;51.434;6.788;2023-01-06T08:19:21;4.27;;;2.73;;
9102;SDS011;4587;51.434;6.788;2023-01-06T08:21:46;3.83;;;2.63;;
9102;SDS011;4587;51.434;6.788;2023-01-06T08:24:12;7.23;;;3.43;;
9102;SDS011;4587;51.434;6.788;2023-01-06T08:26:37;6.17;;;3.23;;
9102;SDS011;4587;51.434;6.788;2023-01-06T08:29:03;4.80;;;2.93;;
9102;SDS011;4587;51.434;6.788;2023-01-06T08:31:28;3.77;;;2.60;;
9102;SDS011;4587;51.434;6.788;2023-01-06T08:33:54;6.00;;;2.30;;
9102;SDS011;4587;51.434;6.788;2023-01-06T08:36:20;2.50;;;1.37;;
9102;SDS011;4587;51.434;6.788;2023-01-06T08:38:47;2.40;;;1.50;;
9102;SDS011;4587;51.434;6.788;2023-01-06T08:41:13;4.93;;;1.20;;
9102;SDS011;4587;51.434;6.788;2023-01-06T08:43:39;2.10;;;1.23;;
9102;SDS011;4587;51.434;6.788;2023-01-06T08:46:07;3.03;;;1.30;;
9102;SDS011;4587;51.434;6.788;2023-01-06T08:48:35;2.23;;;1.20;;
9102;SDS011;4587;51.434;6.788;2023-01-06T08:51:02;2.13;;;1.10;;
9102;SDS011;4587;51.434;6.788;2023-01-06T08:53:33;3.80;;;1.07;;
9102;SDS011;4587;51.434;6.788;2023-01-06T08:55:58;2.93;;;0.90;;
9102;SDS011;4587;51.434;6.788;2023-01-06T08:58:24;1.10;;;0.80;;
9102;SDS011;4587;51.434;6.788;2023-01-06T09:00:50;4.40;;;1.07;;
9102;SDS011;4587;51.434;6.788;2023-01-06T09:03:15;3.30;;;1.00;;
9102;SDS011;4587;51.434;6.788;2023-01-06T09:05:41;2.90;;;1.00;;
9102;SDS011;4587;51.434;6.788;2023-01-06T09:08:07;1.80;;;0.90;;
9102;SDS011;4587;51.434;6.788;2023-01-06T09:10:35;1.67;;;0.97;;
9102;SDS011;4587;51.434;6.788;2023-01-06T09:13:02;2.50;;;1.00;;
9102;SDS011;4587;51.434;6.788;2023-01-06T09:15:27;3.33;;;1.20;;
9102;SDS011;4587;51.434;6.788;2023-01-06T09:17:53;3.73;;;1.23;;
9102;SDS011;4587;51.434;6.788;2023-01-06T09:20:19;1.70;;;0.83;;
9102;SDS011;4587;51.434;6.788;2023-01-06T09:22:45;2.03;;;1.00;;
9102;SDS011;4587;51.434;6.788;2023-01-06T09:25:10;2.43;;;1.13;;
9102;SDS011;4587;51.434;6.788;2023-01-06T09:27:36;3.00;;;1.00;;
9102;SDS011;4587;51.434;6.788;2023-01-06T09:30:02;2.77;;;1.00;;
9102;SDS011;4587;51.434;6.788;2023-01-06T09:32:28;1.83;;;1.10;;
9102;SDS011;4587;51.434;6.788;2023-01-06T09:34:54;1.53;;;0.80;;
9102;SDS011;4587;51.434;6.788;2023-01-06T09:37:19;1.30;;;1.00;;
9102;SDS011;4587;51.434;6.788;2023-01-06T09:39:45;2.10;;;1.10;;
9102;SDS011;4587;51.434;6.788;2023-01-06T09:42:14;3.27;;;1.00;;
9102;SDS011;4587;51.434;6.788;2023-01-06T09:47:24;2.00;;;0.87;;
9102;SDS011;4587;51.434;6.788;2023-01-06T09:50:06;1.67;;;1.00;;
9102;SDS011;4587;51.434;6.788;2023-01-06T09:53:22;1.07;;;0.97;;
9102;SDS011;4587;51.434;6.788;2023-01-06T09:55:46;4.13;;;1.20;;
9102;SDS011;4587;51.434;6.788;2023-01-06T09:58:20;2.50;;;1.20;;
9102;SDS011;4587;51.434;6.788;2023-01-06T10:00:49;1.27;;;1.03;;
9102;SDS011;4587;51.434;6.788;2023-01-06T10:03:20;3.50;;;1.20;;
9102;SDS011;4587;51.434;6.788;2023-01-06T10:05:56;2.63;;;1.13;;
9102;SDS011;4587;51.434;6.788;2023-01-06T10:20:06;4.17;;;1.33;;
9102;SDS011;4587;51.434;6.788;2023-01-06T10:25:49;3.33;;;1.20;;
9102;SDS011;4587;51.434;6.788;2023-01-06T10:31:05;1.53;;;1.20;;
9102;SDS011;4587;51.434;6.788;2023-01-06T10:33:43;2.80;;;1.17;;
9102;SDS011;4587;51.434;6.788;2023-01-06T10:36:15;2.53;;;1.10;;
9102;SDS011;4587;51.434;6.788;2023-01-06T10:38:53;0.90;;;0.90;;
9102;SDS011;4587;51.434;6.788;2023-01-06T10:44:03;1.60;;;0.90;;
9102;SDS011;4587;51.434;6.788;2023-01-06T10:46:31;1.80;;;1.20;;
9102;SDS011;4587;51.434;6.788;2023-01-06T10:48:59;2.87;;;1.40;;
9102;SDS011;4587;51.434;6.788;2023-01-06T10:51:36;1.97;;;1.00;;
9102;SDS011;4587;51.434;6.788;2023-01-06T10:54:11;1.47;;;1.10;;
9102;SDS011;4587;51.434;6.788;2023-01-06T10:56:40;1.80;;;1.07;;
9102;SDS011;4587;51.434;6.788;2023-01-06T10:59:10;1.77;;;1.20;;
9102;SDS011;4587;51.434;6.788;2023-01-06T11:01:47;1.63;;;1.20;;
9102;SDS011;4587;51.434;6.788;2023-01-06T11:04:16;2.00;;;1.10;;
9102;SDS011;4587;51.434;6.788;2023-01-06T11:06:50;1.63;;;1.30;;
9102;SDS011;4587;51.434;6.788;2023-01-06T11:09:24;2.93;;;1.50;;
9102;SDS011;4587;51.434;6.788;2023-01-06T11:11:50;1.63;;;1.13;;
9102;SDS011;4587;51.434;6.788;2023-01-06T11:14:19;2.10;;;1.30;;
9102;SDS011;4587;51.434;6.788;2023-01-06T11:16:53;1.50;;;1.10;;
9102;SDS011;4587;51.434;6.788;2023-01-06T11:19:37;2.20;;;1.10;;
9102;SDS011;4587;51.434;6.788;2023-01-06T11:22:09;3.03;;;1.20;;
9102;SDS011;4587;51.434;6.788;2023-01-06T11:25:02;1.43;;;1.10;;
9102;SDS011;4587;51.434;6.788;2023-01-06T11:27:45;2.50;;;1.43;;
9102;SDS011;4587;51.434;6.788;2023-01-06T11:30:25;1.60;;;1.23;;
9102;SDS011;4587;51.434;6.788;2023-01-06T11:32:52;2.20;;;1.50;;
9102;SDS011;4587;51.434;6.788;2023-01-06T11:35:19;2.47;;;1.47;;
9102;SDS011;4587;51.434;6.788;2023-01-06T11:37:48;2.17;;;1.50;;
9102;SDS011;4587;51.434;6.788;2023-01-06T11:40:28;2.43;;;1.30;;
9102;SDS011;4587;51.434;6.788;2023-01-06T11:42:57;2.40;;;1.43;;
9102;SDS011;4587;51.434;6.788;2023-01-06T11:45:33;1.97;;;1.50;;
9102;SDS011;4587;51.434;6.788;2023-01-06T11:48:13;2.73;;;1.40;;
9102;SDS011;4587;51.434;6.788;2023-01-06T11:50:54;2.80;;;1.60;;
9102;SDS011;4587;51.434;6.788;2023-01-06T11:53:21;1.73;;;1.40;;
9102;SDS011;4587;51.434;6.788;2023-01-06T11:56:32;3.13;;;1.50;;
9102;SDS011;4587;51.434;6.788;2023-01-06T11:58:48;1.67;;;1.27;;
9102;SDS011;4587;51.434;6.788;2023-01-06T12:06:49;2.67;;;1.43;;
9102;SDS011;4587;51.434;6.788;2023-01-06T12:09:34;3.13;;;1.47;;
9102;SDS011;4587;51.434;6.788;2023-01-06T12:12:03;1.73;;;1.20;;
9102;SDS011;4587;51.434;6.788;2023-01-06T12:14:34;2.47;;;1.23;;
9102;SDS011;4587;51.434;6.788;2023-01-06T12:17:20;2.40;;;1.47;;
9102;SDS011;4587;51.434;6.788;2023-01-06T12:20:14;4.10;;;1.30;;
9102;SDS011;4587;51.434;6.788;2023-01-06T12:27:55;3.53;;;1.33;;
9102;SDS011;4587;51.434;6.788;2023-01-06T12:30:33;2.17;;;1.17;;
9102;SDS011;4587;51.434;6.788;2023-01-06T12:33:10;3.17;;;1.40;;
9102;SDS011;4587;51.434;6.788;2023-01-06T12:35:48;1.90;;;1.00;;
9102;SDS011;4587;51.434;6.788;2023-01-06T12:41:12;3.00;;;1.20;;
9102;SDS011;4587;51.434;6.788;2023-01-06T12:43:58;1.87;;;1.07;;
9102;SDS011;4587;51.434;6.788;2023-01-06T12:46:30;2.03;;;1.13;;
9102;SDS011;4587;51.434;6.788;2023-01-06T12:49:03;4.00;;;1.10;;
9102;SDS011;4587;51.434;6.788;2023-01-06T12:51:40;2.97;;;1.40;;
9102;SDS011;4587;51.434;6.788;2023-01-06T12:54:16;2.57;;;1.30;;
9102;SDS011;4587;51.434;6.788;2023-01-06T13:05:12;2.93;;;1.20;;
9102;SDS011;4587;51.434;6.788;2023-01-06T13:10:43;3.20;;;1.13;;
9102;SDS011;4587;51.434;6.788;2023-01-06T13:15:48;3.23;;;1.33;;
9102;SDS011;4587;51.434;6.788;2023-01-06T13:20:49;3.37;;;1.23;;
9102;SDS011;4587;51.434;6.788;2023-01-06T13:29:01;2.03;;;1.10;;
9102;SDS011;4587;51.434;6.788;2023-01-06T13:31:55;2.53;;;1.00;;
9102;SDS011;4587;51.434;6.788;2023-01-06T13:37:26;1.97;;;1.30;;
9102;SDS011;4587;51.434;6.788;2023-01-06T13:40:37;3.33;;;1.33;;
9102;SDS011;4587;51.434;6.788;2023-01-06T13:45:29;2.47;;;1.20;;
9102;SDS011;4587;51.434;6.788;2023-01-06T13:48:00;1.60;;;1.00;;
9102;SDS011;4587;51.434;6.788;2023-01-06T13:50:32;1.77;;;1.07;;
9102;SDS011;4587;51.434;6.788;2023-01-06T13:53:00;2.97;;;1.30;;
9102;SDS011;4587;51.434;6.788;2023-01-06T13:55:27;2.57;;;1.00;;
9102;SDS011;4587;51.434;6.788;2023-01-06T13:57:55;1.43;;;1.00;;
9102;SDS011;4587;51.434;6.788;2023-01-06T14:00:24;1.43;;;1.03;;
9102;SDS011;4587;51.434;6.788;2023-01-06T14:05:46;1.10;;;0.87;;
9102;SDS011;4587;51.434;6.788;2023-01-06T14:08:14;1.00;;;0.80;;
9102;SDS011;4587;51.434;6.788;2023-01-06T14:10:42;1.97;;;1.00;;
9102;SDS011;4587;51.434;6.788;2023-01-06T14:13:26;1.57;;;1.10;;
9102;SDS011;4587;51.434;6.788;2023-01-06T14:16:06;1.30;;;1.10;;
9102;SDS011;4587;51.434;6.788;2023-01-06T14:18:35;1.43;;;1.13;;
9102;SDS011;4587;51.434;6.788;2023-01-06T14:23:51;1.40;;;1.10;;
9102;SDS011;4587;51.434;6.788;2023-01-06T14:26:21;3.40;;;1.07;;
9102;SDS011;4587;51.434;6.788;2023-01-06T14:34:48;1.00;;;0.90;;
9102;SDS011;4587;51.434;6.788;2023-01-06T14:37:16;1.60;;;1.00;;
9102;SDS011;4587;51.434;6.788;2023-01-06T14:39:47;2.20;;;1.13;;
9102;SDS011;4587;51.434;6.788;2023-01-06T14:42:16;2.40;;;1.27;;
9102;SDS011;4587;51.434;6.788;2023-01-06T14:44:52;4.83;;;1.67;;
9102;SDS011;4587;51.434;6.788;2023-01-06T14:50:08;2.70;;;1.70;;
9102;SDS011;4587;51.434;6.788;2023-01-06T14:52:44;1.83;;;1.30;;
9102;SDS011;4587;51.434;6.788;2023-01-06T14:55:15;3.10;;;1.60;;
9102;SDS011;4587;51.434;6.788;2023-01-06T14:57:43;1.40;;;1.30;;
9102;SDS011;4587;51.434;6.788;2023-01-06T15:00:19;2.13;;;1.40;;
9102;SDS011;4587;51.434;6.788;2023-01-06T15:05:36;1.60;;;1.50;;
9102;SDS011;4587;51.434;6.788;2023-01-06T15:08:04;1.53;;;1.43;;
9102;SDS011;4587;51.434;6.788;2023-01-06T15:10:31;1.63;;;1.53;;
9102;SDS011;4587;51.434;6.788;2023-01-06T15:12:59;1.73;;;1.57;;
9102;SDS011;4587;51.434;6.788;2023-01-06T15:15:30;2.10;;;1.90;;
9102;SDS011;4587;51.434;6.788;2023-01-06T15:17:57;3.00;;;1.90;;
9102;SDS011;4587;51.434;6.788;2023-01-06T15:20:30;1.80;;;1.70;;
9102;SDS011;4587;51.434;6.788;2023-01-06T15:23:03;2.80;;;1.63;;
9102;SDS011;4587;51.434;6.788;2023-01-06T15:25:29;1.50;;;1.40;;
9102;SDS011;4587;51.434;6.788;2023-01-06T15:27:57;1.50;;;1.40;;
9102;SDS011;4587;51.434;6.788;2023-01-06T15:30:24;2.53;;;1.80;;
9102;SDS011;4587;51.434;6.788;2023-01-06T15:32:52;2.27;;;1.70;;
9102;SDS011;4587;51.434;6.788;2023-01-06T15:35:24;2.60;;;2.00;;
9102;SDS011;4587;51.434;6.788;2023-01-06T15:38:06;1.97;;;1.77;;
9102;SDS011;4587;51.434;6.788;2023-01-06T15:40:53;4.77;;;2.20;;
9102;SDS011;4587;51.434;6.788;2023-01-06T15:43:22;2.37;;;1.70;;
9102;SDS011;4587;51.434;6.788;2023-01-06T15:46:03;1.77;;;1.20;;
9102;SDS011;4587;51.434;6.788;2023-01-06T15:48:32;2.23;;;1.30;;
9102;SDS011;4587;51.434;6.788;2023-01-06T15:51:00;2.03;;;1.30;;
9102;SDS011;4587;51.434;6.788;2023-01-06T15:53:34;1.80;;;1.67;;
9102;SDS011;4587;51.434;6.788;2023-01-06T15:56:00;3.57;;;2.40;;
9102;SDS011;4587;51.434;6.788;2023-01-06T15:58:28;2.73;;;2.30;;
9102;SDS011;4587;51.434;6.788;2023-01-06T16:01:05;4.17;;;2.97;;
9102;SDS011;4587;51.434;6.788;2023-01-06T16:03:36;3.00;;;2.70;;
9102;SDS011;4587;51.434;6.788;2023-01-06T16:06:07;5.03;;;3.37;;
9102;SDS011;4587;51.434;6.788;2023-01-06T16:08:34;4.60;;;3.50;;
9102;SDS011;4587;51.434;6.788;2023-01-06T16:18:41;5.37;;;4.87;;
9102;SDS011;4587;51.434;6.788;2023-01-06T16:21:23;4.40;;;4.00;;
9102;SDS011;4587;51.434;6.788;2023-01-06T16:23:59;5.63;;;3.90;;
9102;SDS011;4587;51.434;6.788;2023-01-06T16:26:28;3.47;;;3.17;;
9102;SDS011;4587;51.434;6.788;2023-01-06T16:28:56;4.40;;;3.60;;
9102;SDS011;4587;51.434;6.788;2023-01-06T16:31:36;3.80;;;3.50;;
9102;SDS011;4587;51.434;6.788;2023-01-06T16:36:56;4.00;;;3.43;;
9102;SDS011;4587;51.434;6.788;2023-01-06T16:39:23;5.17;;;4.67;;
9102;SDS011;4587;51.434;6.788;2023-01-06T16:44:25;6.90;;;6.20;;
9102;SDS011;4587;51.434;6.788;2023-01-06T16:46:51;7.90;;;7.00;;
9102;SDS011;4587;51.434;6.788;2023-01-06T16:49:16;6.87;;;6.00;;
9102;SDS011;4587;51.434;6.788;2023-01-06T16:51:43;6.77;;;5.80;;
9102;SDS011;4587;51.434;6.788;2023-01-06T16:54:11;6.73;;;6.03;;
9102;SDS011;4587;51.434;6.788;2023-01-06T16:56:38;6.60;;;5.90;;
9102;SDS011;4587;51.434;6.788;2023-01-06T16:59:07;5.40;;;4.90;;
9102;SDS011;4587;51.434;6.788;2023-01-06T17:01:36;5.47;;;4.50;;
9102;SDS011;4587;51.434;6.788;2023-01-06T17:04:02;6.20;;;4.17;;
9102;SDS011;4587;51.434;6.788;2023-01-06T17:06:28;6.53;;;4.80;;
9102;SDS011;4587;51.434;6.788;2023-01-06T17:08:57;5.17;;;4.60;;
9102;SDS011;4587;51.434;6.788;2023-01-06T17:11:25;4.80;;;4.20;;
9102;SDS011;4587;51.434;6.788;2023-01-06T17:13:56;4.50;;;4.10;;
9102;SDS011;4587;51.434;6.788;2023-01-06T17:16:26;4.23;;;3.90;;
9102;SDS011;4587;51.434;6.788;2023-01-06T17:18:58;5.03;;;3.50;;
9102;SDS011;4587;51.434;6.788;2023-01-06T17:21:35;3.63;;;3.33;;
9102;SDS011;4587;51.434;6.788;2023-01-06T17:24:13;3.40;;;2.93;;
9102;SDS011;4587;51.434;6.788;2023-01-06T17:27:29;5.63;;;4.33;;
9102;SDS011;4587;51.434;6.788;2023-01-06T17:29:45;4.70;;;4.30;;
9102;SDS011;4587;51.434;6.788;2023-01-06T17:32:16;5.57;;;4.87;;
9102;SDS011;4587;51.434;6.788;2023-01-06T17:34:46;6.03;;;5.43;;
9102;SDS011;4587;51.434;6.788;2023-01-06T17:37:22;5.70;;;4.83;;
9102;SDS011;4587;51.434;6.788;2023-01-06T17:39:55;6.40;;;5.20;;
9102;SDS011;4587;51.434;6.788;2023-01-06T17:42:25;6.93;;;5.10;;
9102;SDS011;4587;51.434;6.788;2023-01-06T17:44:57;7.40;;;5.33;;
9102;SDS011;4587;51.434;6.788;2023-01-06T17:47:27;6.40;;;4.87;;
9102;SDS011;4587;51.434;6.788;2023-01-06T17:49:56;5.10;;;4.40;;
9102;SDS011;4587;51.434;6.788;2023-01-06T17:52:36;6.90;;;5.40;;